createdAt,value
2022-08-17T00:00:34.221Z,27.80
2022-08-17T00:03:07.306Z,27.80
2022-08-17T00:05:37.046Z,27.80
2022-08-17T00:08:05.502Z,27.80
2022-08-17T00:10:33.835Z,27.80
2022-08-17T00:13:06.541Z,27.80
2022-08-17T00:15:34.733Z,27.80
2022-08-17T00:18:04.349Z,27.70
2022-08-17T00:20:52.706Z,27.80
2022-08-17T00:23:20.861Z,27.70
2022-08-17T00:25:49.192Z,27.70
2022-08-17T00:28:17.390Z,27.70
2022-08-17T00:30:52.780Z,27.70
2022-08-17T00:33:25.528Z,27.70
2022-08-17T00:35:54.128Z,27.70
2022-08-17T00:38:22.455Z,27.70
2022-08-17T00:40:51.712Z,27.70
2022-08-17T00:43:22.303Z,27.80
2022-08-17T00:45:50.752Z,27.70
2022-08-17T00:48:29.945Z,27.70
2022-08-17T00:51:03.570Z,27.70
2022-08-17T00:53:32.736Z,27.70
2022-08-17T00:56:01.918Z,27.70
2022-08-17T00:58:35.832Z,27.70
2022-08-17T01:01:04.562Z,27.70
2022-08-17T01:03:32.798Z,27.70
2022-08-17T01:06:02.496Z,27.70
2022-08-17T01:08:31.106Z,27.70
2022-08-17T01:11:02.210Z,27.70
2022-08-17T01:13:34.505Z,27.70
2022-08-17T01:16:10.871Z,27.70
2022-08-17T01:18:39.104Z,27.70
2022-08-17T01:21:11.839Z,27.70
2022-08-17T01:23:42.499Z,27.70
2022-08-17T01:26:10.685Z,27.60
2022-08-17T01:28:54.067Z,27.60
2022-08-17T01:31:24.466Z,27.60
2022-08-17T01:33:52.684Z,27.60
2022-08-17T01:36:20.868Z,27.60
2022-08-17T01:38:50.419Z,27.70
2022-08-17T01:41:18.661Z,27.60
2022-08-17T01:43:48.911Z,27.60
2022-08-17T01:46:18.080Z,27.60
2022-08-17T01:48:47.590Z,27.60
2022-08-17T01:51:16.145Z,27.60
2022-08-17T01:53:46.274Z,27.60
2022-08-17T01:56:16.687Z,27.60
2022-08-17T01:58:45.093Z,27.60
2022-08-17T02:01:14.821Z,27.60
2022-08-17T02:03:53.511Z,27.70
2022-08-17T02:06:30.452Z,27.60
2022-08-17T02:09:02.257Z,27.60
2022-08-17T02:11:34.289Z,27.60
2022-08-17T02:14:04.105Z,27.60
2022-08-17T02:16:37.406Z,27.60
2022-08-17T02:19:07.310Z,27.60
2022-08-17T02:21:35.573Z,27.60
2022-08-17T02:24:04.048Z,27.50
2022-08-17T02:26:33.612Z,27.60
2022-08-17T02:29:02.077Z,27.50
2022-08-17T02:31:31.167Z,27.50
2022-08-17T02:34:04.602Z,27.60
2022-08-17T02:36:34.207Z,27.60
2022-08-17T02:39:02.835Z,27.60
2022-08-17T02:41:31.113Z,27.60
2022-08-17T02:44:00.666Z,27.50
2022-08-17T02:46:30.478Z,27.50
2022-08-17T02:48:58.702Z,27.50
2022-08-17T02:51:27.110Z,27.50
2022-08-17T02:54:00.222Z,27.50
2022-08-17T02:56:43.555Z,27.50
2022-08-17T02:59:13.107Z,27.50
2022-08-17T03:01:41.453Z,27.50
2022-08-17T03:04:09.664Z,27.50
2022-08-17T03:06:37.950Z,27.50
2022-08-17T03:09:06.127Z,27.50
2022-08-17T03:11:34.300Z,27.50
2022-08-17T03:14:02.502Z,27.50
2022-08-17T03:16:32.090Z,27.50
2022-08-17T03:19:01.628Z,27.40
2022-08-17T03:24:06.906Z,27.50
2022-08-17T03:26:37.639Z,27.50
2022-08-17T03:29:05.830Z,27.40
2022-08-17T03:31:36.966Z,27.50
2022-08-17T03:34:05.431Z,27.40
2022-08-17T03:36:36.036Z,27.50
2022-08-17T03:39:04.466Z,27.50
2022-08-17T03:41:32.671Z,27.50
2022-08-17T03:44:00.847Z,27.50
2022-08-17T03:46:42.939Z,27.50
2022-08-17T03:49:29.755Z,27.40
2022-08-17T03:52:15.948Z,27.40
2022-08-17T03:55:01.648Z,27.40
2022-08-17T03:57:29.910Z,27.50
2022-08-17T03:59:58.171Z,27.40
2022-08-17T04:02:29.521Z,27.50
2022-08-17T04:04:59.225Z,27.50
2022-08-17T04:07:28.756Z,27.50
2022-08-17T04:09:58.159Z,27.40
2022-08-17T04:12:26.724Z,27.40
2022-08-17T04:14:55.247Z,27.40
2022-08-17T04:17:24.922Z,27.40
2022-08-17T04:19:53.221Z,27.40
2022-08-17T04:22:31.906Z,27.40
2022-08-17T04:25:03.320Z,27.40
2022-08-17T04:27:31.837Z,27.40
2022-08-17T04:30:00.248Z,27.40
2022-08-17T04:33:05.366Z,27.40
2022-08-17T04:35:20.058Z,27.40
2022-08-17T04:37:49.617Z,27.40
2022-08-17T04:40:36.032Z,27.40
2022-08-17T04:43:05.426Z,27.40
2022-08-17T04:45:33.619Z,27.40
2022-08-17T04:48:01.846Z,27.30
2022-08-17T04:50:30.065Z,27.30
2022-08-17T04:52:59.857Z,27.40
2022-08-17T04:55:28.300Z,27.40
2022-08-17T04:57:56.714Z,27.40
2022-08-17T05:00:25.993Z,27.40
2022-08-17T05:02:55.102Z,27.30
2022-08-17T05:05:24.654Z,27.30
2022-08-17T05:07:53.214Z,27.40
2022-08-17T05:10:23.024Z,27.20
2022-08-17T05:12:58.924Z,27.40
2022-08-17T05:15:27.326Z,27.40
2022-08-17T05:17:55.516Z,27.40
2022-08-17T05:20:23.818Z,27.40
2022-08-17T05:22:52.790Z,27.40
2022-08-17T05:25:25.778Z,27.40
2022-08-17T05:27:55.265Z,27.40
2022-08-17T05:30:24.371Z,27.40
2022-08-17T05:35:28.366Z,27.40
2022-08-17T05:37:56.737Z,27.40
2022-08-17T05:40:27.410Z,27.40
2022-08-17T05:43:08.656Z,27.50
2022-08-17T05:45:54.633Z,27.40
2022-08-17T05:48:35.536Z,27.50
2022-08-17T05:51:25.329Z,27.50
2022-08-17T05:53:58.559Z,27.50
2022-08-17T05:56:41.176Z,27.60
2022-08-17T05:59:14.472Z,27.60
2022-08-17T06:01:47.641Z,27.60
2022-08-17T06:04:18.222Z,27.70
2022-08-17T06:06:48.767Z,27.80
2022-08-17T06:09:27.645Z,27.80
2022-08-17T06:12:03.948Z,27.90
2022-08-17T06:14:43.237Z,27.90
2022-08-17T06:17:14.086Z,27.90
2022-08-17T06:19:43.649Z,28.00
2022-08-17T06:22:12.941Z,28.00
2022-08-17T06:24:44.182Z,28.00
2022-08-17T06:27:17.159Z,28.10
2022-08-17T06:29:50.313Z,28.10
2022-08-17T06:32:18.757Z,28.10
2022-08-17T06:34:47.021Z,28.10
2022-08-17T06:37:32.371Z,28.20
2022-08-17T06:40:13.381Z,28.20
2022-08-17T06:43:04.878Z,28.20
2022-08-17T06:45:37.954Z,28.20
2022-08-17T06:48:09.985Z,28.30
2022-08-17T06:50:40.063Z,28.30
2022-08-17T06:53:13.660Z,28.30
2022-08-17T06:55:45.430Z,28.30
2022-08-17T06:58:16.112Z,28.30
2022-08-17T07:00:46.564Z,28.40
2022-08-17T07:03:21.015Z,28.40
2022-08-17T07:05:51.619Z,28.40
2022-08-17T07:08:26.428Z,28.40
2022-08-17T07:10:58.492Z,28.50
2022-08-17T07:13:38.782Z,28.50
2022-08-17T07:16:14.770Z,28.50
2022-08-17T07:18:43.850Z,28.50
2022-08-17T07:21:26.187Z,28.50
2022-08-17T07:24:29.372Z,28.50
2022-08-17T07:27:10.201Z,28.50
2022-08-17T07:29:48.191Z,28.50
2022-08-17T07:32:18.641Z,28.50
2022-08-17T07:35:05.163Z,28.60
2022-08-17T07:37:34.377Z,28.50
2022-08-17T07:40:19.865Z,28.60
2022-08-17T07:43:08.965Z,28.60
2022-08-17T07:46:19.664Z,28.60
2022-08-17T07:48:54.272Z,28.60
2022-08-17T07:51:26.318Z,28.60
2022-08-17T07:54:04.790Z,28.70
2022-08-17T07:56:44.768Z,28.70
2022-08-17T07:59:15.863Z,28.70
2022-08-17T08:01:47.928Z,28.70
2022-08-17T08:04:59.272Z,28.70
2022-08-17T08:07:25.672Z,28.70
2022-08-17T08:10:02.359Z,28.70
2022-08-17T08:12:34.494Z,28.70
2022-08-17T08:15:09.381Z,28.70
2022-08-17T08:17:47.895Z,28.70
2022-08-17T08:20:51.432Z,28.70
2022-08-17T08:23:07.153Z,28.70
2022-08-17T08:25:44.570Z,28.60
2022-08-17T08:28:20.032Z,28.60
2022-08-17T08:30:50.107Z,28.70
2022-08-17T08:33:42.174Z,28.70
2022-08-17T08:37:14.187Z,28.70
2022-08-17T08:39:05.544Z,28.70
2022-08-17T08:41:39.518Z,28.70
2022-08-17T08:44:17.908Z,28.70
2022-08-17T08:46:50.446Z,28.70
2022-08-17T08:50:02.774Z,28.70
2022-08-17T08:52:49.252Z,28.70
2022-08-17T08:55:20.484Z,28.70
2022-08-17T08:57:53.823Z,28.70
2022-08-17T09:00:22.708Z,28.70
2022-08-17T09:03:28.111Z,28.80
2022-08-17T09:06:32.037Z,28.70
2022-08-17T09:09:11.558Z,28.70
2022-08-17T09:12:01.085Z,28.70
2022-08-17T09:14:45.029Z,28.80
2022-08-17T09:17:17.190Z,28.80
2022-08-17T09:19:49.421Z,28.80
2022-08-17T09:22:25.769Z,28.80
2022-08-17T09:24:59.464Z,28.80
2022-08-17T09:27:31.673Z,28.80
2022-08-17T09:30:02.664Z,28.80
2022-08-17T09:32:34.786Z,28.80
2022-08-17T09:35:07.976Z,28.80
2022-08-17T09:37:41.388Z,28.80
2022-08-17T09:40:13.221Z,28.80
2022-08-17T09:42:46.408Z,28.80
2022-08-17T09:45:27.915Z,28.80
2022-08-17T09:47:59.890Z,28.90
2022-08-17T09:51:05.224Z,28.90
2022-08-17T09:53:32.043Z,28.90
2022-08-17T09:56:19.663Z,28.90
2022-08-17T09:59:23.444Z,28.90
2022-08-17T10:01:54.683Z,28.90
2022-08-17T10:04:36.658Z,29.00
2022-08-17T10:07:08.838Z,28.90
2022-08-17T10:09:43.763Z,29.00
2022-08-17T10:12:21.509Z,29.00
2022-08-17T10:15:08.123Z,29.00
2022-08-17T10:17:41.061Z,29.00
2022-08-17T10:20:12.276Z,29.00
2022-08-17T10:23:01.002Z,29.00
2022-08-17T10:25:55.196Z,29.00
2022-08-17T10:28:29.442Z,29.00
2022-08-17T10:31:23.209Z,29.00
2022-08-17T10:33:52.909Z,29.00
2022-08-17T10:36:23.830Z,29.10
2022-08-17T10:39:00.592Z,29.10
2022-08-17T10:41:33.914Z,29.10
2022-08-17T10:44:40.231Z,29.10
2022-08-17T10:47:07.072Z,29.10
2022-08-17T10:49:38.094Z,29.10
2022-08-17T10:52:24.812Z,29.10
2022-08-17T10:55:13.006Z,29.10
2022-08-17T10:57:44.841Z,29.10
2022-08-17T11:00:35.979Z,29.10
2022-08-17T11:03:04.278Z,29.10
2022-08-17T11:05:45.973Z,29.20
2022-08-17T11:08:42.456Z,29.20
2022-08-17T11:11:45.725Z,29.20
2022-08-17T11:14:23.946Z,29.20
2022-08-17T11:17:02.493Z,29.20
2022-08-17T11:19:41.812Z,29.20
2022-08-17T11:22:33.566Z,29.20
2022-08-17T11:25:13.021Z,29.20
2022-08-17T11:27:41.173Z,29.20
2022-08-17T11:30:12.865Z,29.30
2022-08-17T11:32:47.604Z,29.20
2022-08-17T11:35:32.913Z,29.20
2022-08-17T11:38:14.058Z,29.30
2022-08-17T11:41:01.194Z,29.30
2022-08-17T11:43:55.601Z,29.30
2022-08-17T11:46:51.184Z,29.30
2022-08-17T11:49:38.977Z,29.30
2022-08-17T11:52:16.277Z,29.30
2022-08-17T11:54:46.192Z,29.30
2022-08-17T11:57:59.905Z,29.30
2022-08-17T12:00:57.797Z,29.30
2022-08-17T12:03:55.670Z,29.30
2022-08-17T12:06:43.433Z,29.30
2022-08-17T12:09:15.810Z,29.40
2022-08-17T12:11:58.615Z,29.40
2022-08-17T12:15:08.048Z,29.40
2022-08-17T12:17:39.317Z,29.40
2022-08-17T12:20:17.318Z,29.40
2022-08-17T12:22:49.570Z,29.40
2022-08-17T12:25:20.075Z,29.40
2022-08-17T12:28:06.504Z,29.40
2022-08-17T12:30:35.845Z,29.40
2022-08-17T12:33:04.127Z,29.40
2022-08-17T12:35:36.745Z,29.40
2022-08-17T12:38:06.516Z,29.40
2022-08-17T12:40:55.354Z,29.40
2022-08-17T12:43:27.838Z,29.40
2022-08-17T12:45:58.178Z,29.40
2022-08-17T12:48:27.393Z,29.40
2022-08-17T12:51:01.752Z,29.40
2022-08-17T12:53:32.501Z,29.40
2022-08-17T12:56:01.262Z,29.40
2022-08-17T12:58:31.558Z,29.40
2022-08-17T13:01:02.333Z,29.40
2022-08-17T13:03:36.393Z,29.40
2022-08-17T13:06:07.547Z,29.40
2022-08-17T13:08:36.742Z,29.40
2022-08-17T13:11:05.979Z,29.40
2022-08-17T13:13:35.308Z,29.40
2022-08-17T13:16:05.011Z,29.40
2022-08-17T13:18:39.980Z,29.40
2022-08-17T13:21:13.754Z,29.40
2022-08-17T13:23:46.555Z,29.40
2022-08-17T13:26:22.740Z,29.40
2022-08-17T13:28:51.776Z,29.40
2022-08-17T13:31:25.214Z,29.40
2022-08-17T13:33:53.398Z,29.40
2022-08-17T13:36:33.680Z,29.40
2022-08-17T13:39:08.809Z,29.40
2022-08-17T13:41:38.143Z,29.40
2022-08-17T13:44:40.719Z,29.40
2022-08-17T13:47:16.859Z,29.30
2022-08-17T13:49:49.070Z,29.30
2022-08-17T13:52:38.114Z,29.30
2022-08-17T13:55:07.976Z,29.30
2022-08-17T13:57:36.170Z,29.30
2022-08-17T14:00:12.919Z,29.30
2022-08-17T14:02:41.150Z,29.30
2022-08-17T14:05:09.414Z,29.30
2022-08-17T14:07:40.733Z,29.30
2022-08-17T14:10:12.363Z,29.30
2022-08-17T14:12:41.738Z,29.30
2022-08-17T14:15:10.841Z,29.30
2022-08-17T14:17:39.369Z,29.30
2022-08-17T14:20:10.566Z,29.30
2022-08-17T14:22:41.198Z,29.30
2022-08-17T14:25:12.008Z,29.30
2022-08-17T14:27:51.730Z,29.30
2022-08-17T14:30:22.540Z,29.30
2022-08-17T14:32:52.127Z,29.20
2022-08-17T14:35:21.989Z,29.30
2022-08-17T14:37:51.718Z,29.30
2022-08-17T14:40:24.953Z,29.20
2022-08-17T14:42:54.286Z,29.20
2022-08-17T14:45:30.487Z,29.20
2022-08-17T14:48:02.752Z,29.20
2022-08-17T14:50:31.733Z,29.20
2022-08-17T14:53:01.776Z,29.20
2022-08-17T14:55:31.103Z,29.20
2022-08-17T14:57:59.338Z,29.20
2022-08-17T15:00:28.616Z,29.20
2022-08-17T15:02:58.644Z,29.20
2022-08-17T15:05:31.466Z,29.20
2022-08-17T15:08:01.238Z,29.20
2022-08-17T15:10:30.047Z,29.20
2022-08-17T15:12:58.332Z,29.20
2022-08-17T15:15:26.768Z,29.20
2022-08-17T15:17:55.109Z,29.20
2022-08-17T15:20:27.281Z,29.20
2022-08-17T15:22:57.187Z,29.20
2022-08-17T15:25:27.591Z,29.20
2022-08-17T15:27:56.033Z,29.20
2022-08-17T15:30:24.434Z,29.20
2022-08-17T15:32:55.081Z,29.20
2022-08-17T15:35:28.069Z,29.20
2022-08-17T15:37:58.412Z,29.20
2022-08-17T15:40:28.078Z,29.20
2022-08-17T15:42:57.869Z,29.20
2022-08-17T15:45:26.994Z,29.20
2022-08-17T15:47:55.369Z,29.10
2022-08-17T15:50:23.503Z,29.20
2022-08-17T15:52:56.493Z,29.20
2022-08-17T15:55:25.261Z,29.20
2022-08-17T15:57:55.428Z,29.20
2022-08-17T16:00:28.499Z,29.20
2022-08-17T16:03:13.662Z,29.20
2022-08-17T16:05:46.384Z,29.20
2022-08-17T16:08:20.034Z,29.20
2022-08-17T16:10:49.511Z,29.20
2022-08-17T16:13:19.185Z,29.10
2022-08-17T16:15:56.719Z,29.20
2022-08-17T16:18:28.346Z,29.20
2022-08-17T16:20:56.949Z,29.20
2022-08-17T16:23:25.177Z,29.20
2022-08-17T16:25:54.470Z,29.10
2022-08-17T16:28:35.612Z,29.20
2022-08-17T16:31:08.191Z,29.20
2022-08-17T16:33:39.083Z,29.10
2022-08-17T16:36:08.139Z,29.10
2022-08-17T16:38:36.425Z,29.10
2022-08-17T16:41:04.802Z,29.10
2022-08-17T16:43:34.474Z,29.10
2022-08-17T16:46:02.831Z,29.10
2022-08-17T16:48:31.033Z,29.10
2022-08-17T16:51:04.134Z,29.10
2022-08-17T16:53:33.055Z,29.10
2022-08-17T16:56:01.387Z,29.10
2022-08-17T16:58:30.278Z,29.10
2022-08-17T17:01:00.474Z,29.10
2022-08-17T17:03:29.727Z,29.10
2022-08-17T17:06:08.231Z,29.10
2022-08-17T17:08:42.127Z,29.10
2022-08-17T17:11:14.138Z,29.10
2022-08-17T17:13:45.306Z,29.10
2022-08-17T17:16:19.391Z,29.10
2022-08-17T17:19:09.317Z,29.10
2022-08-17T17:21:44.766Z,29.10
2022-08-17T17:24:16.509Z,29.00
2022-08-17T17:26:55.752Z,29.00
2022-08-17T17:29:47.192Z,29.00
2022-08-17T17:32:22.564Z,29.10
2022-08-17T17:34:56.148Z,29.10
2022-08-17T17:37:26.896Z,29.10
2022-08-17T17:39:56.575Z,29.10
2022-08-17T17:42:28.363Z,29.10
2022-08-17T17:45:03.804Z,29.10
2022-08-17T17:47:33.817Z,29.10
2022-08-17T17:50:02.639Z,29.10
2022-08-17T17:52:36.235Z,29.10
2022-08-17T17:55:14.335Z,29.10
2022-08-17T17:57:56.116Z,29.10
2022-08-17T18:00:25.567Z,29.10
2022-08-17T18:03:04.720Z,29.10
2022-08-17T18:05:49.998Z,29.00
2022-08-17T18:08:32.112Z,29.10
2022-08-17T18:11:04.908Z,29.10
2022-08-17T18:13:36.593Z,29.00
2022-08-17T18:16:06.002Z,29.00
2022-08-17T18:18:39.897Z,29.00
2022-08-17T18:21:15.869Z,29.00
2022-08-17T18:23:48.718Z,28.90
2022-08-17T18:26:51.334Z,29.00
2022-08-17T18:29:38.819Z,29.00
2022-08-17T18:32:26.071Z,29.00
2022-08-17T18:34:57.083Z,28.90
2022-08-17T18:37:36.876Z,28.90
2022-08-17T18:40:29.813Z,28.90
2022-08-17T18:43:02.886Z,28.90
2022-08-17T18:45:38.402Z,28.90
2022-08-17T18:48:07.604Z,28.90
2022-08-17T18:50:41.358Z,28.90
2022-08-17T18:53:34.418Z,28.90
2022-08-17T18:56:30.708Z,28.90
2022-08-17T18:59:05.848Z,28.90
2022-08-17T19:01:53.502Z,28.90
2022-08-17T19:04:34.994Z,28.90
2022-08-17T19:07:27.461Z,28.90
2022-08-17T19:09:58.664Z,28.80
2022-08-17T19:12:32.906Z,28.80
2022-08-17T19:15:01.299Z,28.80
2022-08-17T19:17:36.285Z,28.80
2022-08-17T19:20:12.426Z,28.80
2022-08-17T19:22:54.012Z,28.80
2022-08-17T19:25:24.652Z,28.80
2022-08-17T19:27:58.103Z,28.80
2022-08-17T19:30:28.205Z,28.80
2022-08-17T19:32:57.934Z,28.80
2022-08-17T19:35:29.881Z,28.70
2022-08-17T19:38:04.636Z,28.80
2022-08-17T19:40:53.962Z,28.80
2022-08-17T19:43:24.701Z,28.80
2022-08-17T19:45:58.377Z,28.70
2022-08-17T19:48:35.912Z,28.70
2022-08-17T19:51:07.115Z,28.70
2022-08-17T19:54:04.363Z,28.70
2022-08-17T19:56:35.167Z,28.70
2022-08-17T19:59:07.545Z,28.70
2022-08-17T20:01:39.623Z,28.60
2022-08-17T20:04:12.511Z,28.70
2022-08-17T20:06:43.007Z,28.70
2022-08-17T20:09:17.735Z,28.70
2022-08-17T20:11:48.508Z,28.70
2022-08-17T20:14:19.111Z,28.70
2022-08-17T20:16:47.443Z,28.60
2022-08-17T20:19:24.131Z,28.60
2022-08-17T20:21:55.154Z,28.60
2022-08-17T20:24:29.441Z,28.60
2022-08-17T20:26:59.777Z,28.60
2022-08-17T20:29:40.141Z,28.60
2022-08-17T20:32:19.062Z,28.60
2022-08-17T20:34:47.888Z,28.60
2022-08-17T20:37:30.622Z,28.50
2022-08-17T20:40:28.966Z,28.60
2022-08-17T20:42:57.652Z,28.60
2022-08-17T20:46:05.500Z,28.60
2022-08-17T20:48:38.417Z,28.50
2022-08-17T20:51:29.692Z,28.50
2022-08-17T20:54:26.791Z,28.50
2022-08-17T20:57:10.182Z,28.50
2022-08-17T21:00:13.974Z,28.50
2022-08-17T21:02:44.654Z,28.50
2022-08-17T21:05:34.381Z,28.50
2022-08-17T21:08:14.171Z,28.50
2022-08-17T21:10:43.942Z,28.50
2022-08-17T21:13:45.350Z,28.50
2022-08-17T21:16:32.708Z,28.50
2022-08-17T21:19:07.558Z,28.50
2022-08-17T21:21:53.439Z,28.50
2022-08-17T21:24:28.506Z,28.50
2022-08-17T21:27:05.705Z,28.50
2022-08-17T21:29:40.445Z,28.50
2022-08-17T21:32:24.714Z,28.50
2022-08-17T21:35:22.662Z,28.40
2022-08-17T21:37:53.237Z,28.40
2022-08-17T21:40:25.571Z,28.40
2022-08-17T21:42:56.345Z,28.40
2022-08-17T21:45:27.503Z,28.40
2022-08-17T21:48:09.690Z,28.40
2022-08-17T21:50:41.278Z,28.50
2022-08-17T21:53:10.138Z,28.40
2022-08-17T21:55:38.392Z,28.50
2022-08-17T21:58:14.868Z,28.50
2022-08-17T22:00:45.299Z,28.40
2022-08-17T22:03:23.727Z,28.40
2022-08-17T22:05:51.957Z,28.40
2022-08-17T22:08:21.283Z,28.40
2022-08-17T22:10:51.149Z,28.40
2022-08-17T22:16:15.448Z,28.40
2022-08-17T22:18:57.792Z,28.40
2022-08-17T22:21:26.241Z,28.40
2022-08-17T22:24:05.048Z,28.40
2022-08-17T22:27:00.256Z,28.40
2022-08-17T22:29:56.977Z,28.40
2022-08-17T22:32:48.522Z,28.40
2022-08-17T22:35:38.467Z,28.40
2022-08-17T22:38:32.170Z,28.40
2022-08-17T22:41:25.890Z,28.30
2022-08-17T22:43:54.197Z,28.40
2022-08-17T22:46:22.624Z,28.40
2022-08-17T22:48:53.613Z,28.40
2022-08-17T22:51:23.211Z,28.40
2022-08-17T22:54:10.629Z,28.40
2022-08-17T22:56:56.279Z,28.30
2022-08-17T22:59:45.656Z,28.30
2022-08-17T23:02:22.464Z,28.30
2022-08-17T23:04:53.534Z,28.30
2022-08-17T23:07:21.929Z,28.30
2022-08-17T23:09:50.243Z,28.30
2022-08-17T23:12:22.565Z,28.30
2022-08-17T23:14:52.659Z,28.30
2022-08-17T23:17:21.049Z,28.30
2022-08-17T23:19:49.325Z,28.30
2022-08-17T23:22:18.933Z,28.30
2022-08-17T23:24:49.043Z,28.30
2022-08-17T23:27:17.372Z,28.40
2022-08-17T23:29:47.140Z,28.30
2022-08-17T23:32:16.148Z,28.30
2022-08-17T23:34:44.811Z,28.30
2022-08-17T23:37:13.155Z,28.30
2022-08-17T23:39:44.741Z,28.30
2022-08-17T23:42:13.929Z,28.30
2022-08-17T23:44:43.770Z,28.30
2022-08-17T23:47:12.465Z,28.20
2022-08-17T23:49:41.470Z,28.30
2022-08-17T23:52:12.522Z,28.30
2022-08-17T23:54:46.652Z,28.30
2022-08-17T23:57:15.894Z,28.30
2022-08-17T23:59:44.868Z,28.30
